createdAt,value
2018-11-29T00:01:58.902Z,95851.72
2018-11-29T00:04:25.674Z,95865.98
2018-11-29T00:06:52.307Z,95873.45
2018-11-29T00:09:18.951Z,95876.98
2018-11-29T00:11:45.605Z,95880.14
2018-11-29T00:14:12.462Z,95882.27
2018-11-29T00:16:39.100Z,95888.73
2018-11-29T00:19:05.736Z,95887.83
2018-11-29T00:21:32.577Z,95898.23
2018-11-29T00:23:59.229Z,95895.53
2018-11-29T00:26:25.885Z,95897.55
2018-11-29T00:28:52.522Z,95895.16
2018-11-29T00:31:19.178Z,95897.55
2018-11-29T00:33:45.820Z,95896.55
2018-11-29T00:36:12.466Z,95905.88
2018-11-29T00:38:39.106Z,95904.88
2018-11-29T00:41:05.766Z,95903.45
2018-11-29T00:43:32.406Z,95903.11
2018-11-29T00:45:59.047Z,95912.83
2018-11-29T00:48:25.691Z,95914.98
2018-11-29T00:50:52.337Z,95920.53
2018-11-29T00:53:18.982Z,95916.37
2018-11-29T00:55:45.633Z,95913.83
2018-11-29T00:58:12.345Z,95921.40
2018-11-29T01:00:39.008Z,95917.86
2018-11-29T01:03:05.654Z,95918.00
2018-11-29T01:05:32.352Z,95919.01
2018-11-29T01:07:58.994Z,95929.34
2018-11-29T01:10:25.642Z,95930.32
2018-11-29T01:12:52.286Z,95930.59
2018-11-29T01:15:18.937Z,95934.77
2018-11-29T01:17:45.578Z,95933.13
2018-11-29T01:20:12.245Z,95936.02
2018-11-29T01:22:38.990Z,95938.55
2018-11-29T01:25:05.626Z,95944.97
2018-11-29T01:27:32.344Z,95946.74
2018-11-29T01:29:58.997Z,95940.32
2018-11-29T01:32:25.642Z,95944.63
2018-11-29T01:34:52.301Z,95944.39
2018-11-29T01:37:18.945Z,95943.34
2018-11-29T01:39:45.596Z,95943.09
2018-11-29T01:42:12.227Z,95941.95
2018-11-29T01:44:38.881Z,95943.09
2018-11-29T01:47:05.518Z,95944.00
2018-11-29T01:49:32.178Z,95937.96
2018-11-29T01:51:58.819Z,95940.70
2018-11-29T01:54:25.468Z,95939.41
2018-11-29T01:56:52.170Z,95943.20
2018-11-29T01:59:18.822Z,95936.53
2018-11-29T02:01:45.461Z,95941.32
2018-11-29T02:04:12.106Z,95944.86
2018-11-29T02:06:38.752Z,95942.33
2018-11-29T02:09:05.411Z,95948.02
2018-11-29T02:11:32.047Z,95946.87
2018-11-29T02:13:58.692Z,95953.44
2018-11-29T02:16:25.337Z,95957.22
2018-11-29T02:18:51.989Z,95955.97
2018-11-29T02:21:18.625Z,95952.67
2018-11-29T02:23:46.622Z,95952.92
2018-11-29T02:26:11.954Z,95945.83
2018-11-29T02:28:38.724Z,95957.09
2018-11-29T02:31:08.481Z,95954.31
2018-11-29T02:33:35.138Z,95957.50
2018-11-29T02:36:01.836Z,95960.38
2018-11-29T02:38:28.472Z,95957.55
2018-11-29T02:40:55.174Z,95962.25
2018-11-29T02:43:21.814Z,95956.32
2018-11-29T02:45:48.504Z,95958.61
2018-11-29T02:48:15.143Z,95965.41
2018-11-29T02:50:41.799Z,95966.80
2018-11-29T02:53:08.435Z,95963.64
2018-11-29T02:55:35.123Z,95966.17
2018-11-29T02:58:01.762Z,95976.27
2018-11-29T03:00:28.587Z,95971.91
2018-11-29T03:02:55.234Z,95981.20
2018-11-29T03:05:21.877Z,95979.81
2018-11-29T03:07:48.532Z,95984.33
2018-11-29T03:10:15.174Z,95982.22
2018-11-29T03:12:41.833Z,95989.92
2018-11-29T03:15:08.461Z,95984.09
2018-11-29T03:17:35.152Z,95986.63
2018-11-29T03:20:01.797Z,95995.72
2018-11-29T03:22:28.441Z,95991.39
2018-11-29T03:24:55.097Z,95996.52
2018-11-29T03:27:21.742Z,96004.90
2018-11-29T03:29:48.452Z,96000.88
2018-11-29T03:32:15.095Z,96000.10
2018-11-29T03:34:41.737Z,96010.55
2018-11-29T03:37:08.381Z,95988.64
2018-11-29T03:39:36.081Z,96007.14
2018-11-29T03:42:01.679Z,96006.81
2018-11-29T03:44:28.365Z,96017.27
2018-11-29T03:46:55.000Z,96019.02
2018-11-29T03:49:21.660Z,96023.33
2018-11-29T03:51:48.298Z,96029.50
2018-11-29T03:54:14.934Z,96032.91
2018-11-29T03:56:41.593Z,96035.93
2018-11-29T03:59:08.231Z,96036.06
2018-11-29T04:01:34.881Z,96040.77
2018-11-29T04:04:01.541Z,96037.59
2018-11-29T04:06:28.172Z,96044.86
2018-11-29T04:08:54.840Z,96048.50
2018-11-29T04:11:21.484Z,96053.95
2018-11-29T04:13:48.122Z,96058.13
2018-11-29T04:16:14.761Z,96055.45
2018-11-29T04:18:41.418Z,96058.03
2018-11-29T04:21:08.049Z,96062.85
2018-11-29T04:23:34.700Z,96064.04
2018-11-29T04:26:01.358Z,96068.77
2018-11-29T04:28:28.010Z,96080.04
2018-11-29T04:30:54.705Z,96081.02
2018-11-29T04:33:21.350Z,96077.77
2018-11-29T04:35:47.985Z,96080.62
2018-11-29T04:38:14.675Z,96077.67
2018-11-29T04:40:41.319Z,96086.05
2018-11-29T04:43:07.973Z,96093.12
2018-11-29T04:45:34.623Z,96101.77
2018-11-29T04:48:02.695Z,96104.86
2018-11-29T04:50:27.917Z,96109.31
2018-11-29T04:52:54.630Z,96103.37
2018-11-29T04:55:21.399Z,96107.41
2018-11-29T04:57:48.046Z,96113.48
2018-11-29T05:00:14.691Z,96118.70
2018-11-29T05:02:41.386Z,96114.55
2018-11-29T05:05:08.035Z,96109.88
2018-11-29T05:07:34.781Z,96113.11
2018-11-29T05:10:01.477Z,96113.83
2018-11-29T05:12:28.114Z,96115.58
2018-11-29T05:14:54.770Z,96117.34
2018-11-29T05:17:21.422Z,96119.47
2018-11-29T05:19:48.070Z,96119.61
2018-11-29T05:22:14.766Z,96126.84
2018-11-29T05:24:41.410Z,96128.83
2018-11-29T05:27:08.042Z,96123.55
2018-11-29T05:29:34.697Z,96129.84
2018-11-29T05:32:01.334Z,96129.13
2018-11-29T05:34:27.973Z,96133.99
2018-11-29T05:36:54.622Z,96132.86
2018-11-29T05:39:21.318Z,96135.42
2018-11-29T05:41:47.958Z,96151.04
2018-11-29T05:44:14.609Z,96152.55
2018-11-29T05:46:41.258Z,96157.92
2018-11-29T05:49:07.944Z,96160.20
2018-11-29T05:51:34.640Z,96159.80
2018-11-29T05:54:01.379Z,96167.14
2018-11-29T05:56:28.016Z,96174.50
2018-11-29T05:58:54.688Z,96171.96
2018-11-29T06:01:21.381Z,96171.53
2018-11-29T06:03:48.034Z,96183.01
2018-11-29T06:06:14.677Z,96183.88
2018-11-29T06:08:41.322Z,96193.17
2018-11-29T06:11:07.961Z,96189.80
2018-11-29T06:13:34.622Z,96203.14
2018-11-29T06:16:01.270Z,96201.75
2018-11-29T06:18:27.914Z,96205.09
2018-11-29T06:20:54.559Z,96205.22
2018-11-29T06:23:21.249Z,96206.14
2018-11-29T06:25:47.886Z,96212.84
2018-11-29T06:28:14.581Z,96217.34
2018-11-29T06:30:41.222Z,96223.95
2018-11-29T06:33:07.882Z,96228.50
2018-11-29T06:35:34.534Z,96225.98
2018-11-29T06:38:01.178Z,96226.09
2018-11-29T06:40:27.841Z,96233.11
2018-11-29T06:42:56.781Z,96236.87
2018-11-29T06:45:24.784Z,96239.35
2018-11-29T06:47:50.060Z,96233.80
2018-11-29T06:50:16.713Z,96242.84
2018-11-29T06:52:43.360Z,96239.91
2018-11-29T06:55:10.013Z,96247.35
2018-11-29T06:57:36.653Z,96232.78
2018-11-29T07:00:03.361Z,96247.45
2018-11-29T07:02:30.044Z,96248.92
2018-11-29T07:04:56.698Z,96255.12
2018-11-29T07:07:23.339Z,96255.82
2018-11-29T07:09:49.978Z,96253.06
2018-11-29T07:12:16.696Z,96255.88
2018-11-29T07:14:43.335Z,96256.41
2018-11-29T07:17:09.978Z,96259.04
2018-11-29T07:19:36.679Z,96259.80
2018-11-29T07:22:05.225Z,96263.25
2018-11-29T07:24:30.034Z,96267.63
2018-11-29T07:26:56.673Z,96262.91
2018-11-29T07:29:23.381Z,96272.24
2018-11-29T07:31:50.071Z,96274.87
2018-11-29T07:34:16.729Z,96275.34
2018-11-29T07:36:43.401Z,96282.73
2018-11-29T07:39:10.118Z,96280.55
2018-11-29T07:41:36.756Z,96277.81
2018-11-29T07:44:03.434Z,96284.58
2018-11-29T07:46:30.081Z,96277.65
2018-11-29T07:48:56.737Z,96277.31
2018-11-29T07:51:23.391Z,96284.74
2018-11-29T07:53:50.080Z,96286.77
2018-11-29T07:56:16.717Z,96294.70
2018-11-29T07:58:43.450Z,96291.88
2018-11-29T08:01:10.229Z,96288.36
2018-11-29T08:03:36.876Z,96295.29
2018-11-29T08:06:03.570Z,96292.07
2018-11-29T08:08:30.226Z,96293.55
2018-11-29T08:10:58.839Z,96293.73
2018-11-29T08:13:23.556Z,96288.51
2018-11-29T08:15:52.527Z,96298.69
2018-11-29T08:18:16.917Z,96289.55
2018-11-29T08:20:43.548Z,96294.86
2018-11-29T08:23:10.198Z,96296.66
2018-11-29T08:25:36.859Z,96299.12
2018-11-29T08:28:03.599Z,96305.63
2018-11-29T08:30:30.299Z,96299.38
2018-11-29T08:32:57.017Z,96301.39
2018-11-29T08:35:23.665Z,96308.11
2018-11-29T08:37:50.340Z,96304.47
2018-11-29T08:40:17.042Z,96314.05
2018-11-29T08:42:43.718Z,96316.55
2018-11-29T08:45:10.375Z,96310.58
2018-11-29T08:47:37.167Z,96307.02
2018-11-29T08:50:03.866Z,96305.88
2018-11-29T08:52:30.540Z,96305.80
2018-11-29T08:54:57.210Z,96302.78
2018-11-29T08:57:23.915Z,96295.70
2018-11-29T08:59:50.657Z,96306.91
2018-11-29T09:02:17.390Z,96307.03
2018-11-29T09:04:45.399Z,96303.91
2018-11-29T09:07:10.768Z,96298.53
2018-11-29T09:09:37.414Z,96301.54
2018-11-29T09:12:04.128Z,96298.35
2018-11-29T09:14:31.335Z,96297.11
2018-11-29T09:16:58.145Z,96292.19
2018-11-29T09:19:24.834Z,96291.09
2018-11-29T09:21:51.523Z,96293.80
2018-11-29T09:24:18.510Z,96282.36
2018-11-29T09:26:45.209Z,96284.67
2018-11-29T09:29:11.943Z,96290.66
2018-11-29T09:31:38.596Z,96290.27
2018-11-29T09:34:05.278Z,96282.69
2018-11-29T09:36:31.914Z,96294.59
2018-11-29T09:38:58.606Z,96298.92
2018-11-29T09:41:25.259Z,96297.77
2018-11-29T09:43:51.918Z,96299.44
2018-11-29T09:46:18.719Z,96286.84
2018-11-29T09:48:45.371Z,96292.13
2018-11-29T09:51:12.011Z,96280.90
2018-11-29T09:53:39.736Z,96281.53
2018-11-29T09:56:06.438Z,96278.20
2018-11-29T09:58:33.091Z,96272.11
2018-11-29T10:00:59.790Z,96271.48
2018-11-29T10:03:26.441Z,96271.05
2018-11-29T10:05:53.083Z,96262.15
2018-11-29T10:08:25.919Z,96263.08
2018-11-29T10:10:46.399Z,96260.88
2018-11-29T10:13:13.093Z,96263.73
2018-11-29T10:15:39.733Z,96262.25
2018-11-29T10:18:06.390Z,96264.38
2018-11-29T10:20:33.035Z,96259.15
2018-11-29T10:23:02.519Z,96256.97
2018-11-29T10:25:29.173Z,96241.20
2018-11-29T10:27:55.892Z,96249.62
2018-11-29T10:30:22.537Z,96243.28
2018-11-29T10:32:49.314Z,96251.00
2018-11-29T10:35:16.019Z,96246.55
2018-11-29T10:37:42.656Z,96250.76
2018-11-29T10:40:09.296Z,96241.73
2018-11-29T10:42:36.068Z,96250.14
2018-11-29T10:45:02.758Z,96251.19
2018-11-29T10:47:29.512Z,96249.45
2018-11-29T10:49:56.209Z,96250.34
2018-11-29T10:52:22.917Z,96245.70
2018-11-29T10:54:49.584Z,96237.20
2018-11-29T10:57:16.234Z,96248.99
2018-11-29T10:59:42.907Z,96243.30
2018-11-29T11:02:09.587Z,96257.28
2018-11-29T11:04:36.283Z,96243.81
2018-11-29T11:07:03.068Z,96250.09
2018-11-29T11:09:29.736Z,96257.28
2018-11-29T11:11:56.450Z,96258.67
2018-11-29T11:14:23.082Z,96253.16
2018-11-29T11:16:49.742Z,96257.19
2018-11-29T11:19:16.474Z,96247.59
2018-11-29T11:21:43.186Z,96254.77
2018-11-29T11:24:10.204Z,96250.38
2018-11-29T11:26:36.838Z,96253.20
2018-11-29T11:29:03.633Z,96250.22
2018-11-29T11:31:31.251Z,96249.90
2018-11-29T11:33:57.160Z,96248.22
2018-11-29T11:36:23.802Z,96244.70
2018-11-29T11:38:50.529Z,96254.02
2018-11-29T11:41:20.153Z,96254.03
2018-11-29T11:43:46.798Z,96248.85
2018-11-29T11:46:14.582Z,96246.20
2018-11-29T11:48:41.321Z,96243.98
2018-11-29T11:51:07.985Z,96245.63
2018-11-29T11:53:34.653Z,96240.11
2018-11-29T11:56:01.454Z,96232.44
2018-11-29T11:58:28.152Z,96225.20
2018-11-29T12:00:54.933Z,96229.65
2018-11-29T12:03:21.641Z,96222.93
2018-11-29T12:05:48.295Z,96222.97
2018-11-29T12:08:14.947Z,96224.31
2018-11-29T12:10:41.639Z,96217.06
2018-11-29T12:13:08.342Z,96211.49
2018-11-29T12:15:34.987Z,96209.33
2018-11-29T12:18:01.637Z,96210.62
2018-11-29T12:20:28.364Z,96216.32
2018-11-29T12:22:55.069Z,96215.80
2018-11-29T12:25:21.715Z,96216.67
2018-11-29T12:27:48.398Z,96218.34
2018-11-29T12:30:15.069Z,96218.61
2018-11-29T12:32:41.716Z,96215.45
2018-11-29T12:35:08.576Z,96220.98
2018-11-29T12:37:35.237Z,96223.22
2018-11-29T12:40:01.877Z,96223.32
2018-11-29T12:42:28.572Z,96217.47
2018-11-29T12:44:55.227Z,96220.01
2018-11-29T12:47:22.009Z,96218.53
2018-11-29T12:49:48.662Z,96222.05
2018-11-29T12:52:15.429Z,96221.80
2018-11-29T12:54:42.134Z,96222.41
2018-11-29T12:57:09.850Z,96218.39
2018-11-29T12:59:36.504Z,96219.33
2018-11-29T13:02:03.225Z,96212.77
2018-11-29T13:04:30.280Z,96209.52
2018-11-29T13:06:56.931Z,96212.59
2018-11-29T13:09:23.601Z,96210.98
2018-11-29T13:11:50.269Z,96202.67
2018-11-29T13:14:17.106Z,96217.56
2018-11-29T13:16:43.692Z,96219.05
2018-11-29T13:19:10.345Z,96214.91
2018-11-29T13:21:36.997Z,96213.67
2018-11-29T13:24:03.748Z,96207.97
2018-11-29T13:26:30.308Z,96216.12
2018-11-29T13:28:56.961Z,96213.42
2018-11-29T13:31:23.628Z,96217.95
2018-11-29T13:33:50.316Z,96219.28
2018-11-29T13:36:16.930Z,96218.23
2018-11-29T13:38:43.574Z,96209.50
2018-11-29T13:41:10.232Z,96214.02
2018-11-29T13:43:36.901Z,96220.55
2018-11-29T13:46:03.558Z,96223.05
2018-11-29T13:48:31.271Z,96221.65
2018-11-29T13:50:57.976Z,96205.58
2018-11-29T13:53:24.637Z,96221.16
2018-11-29T13:55:51.292Z,96219.86
2018-11-29T13:58:19.156Z,96225.44
2018-11-29T14:00:45.897Z,96222.95
2018-11-29T14:03:12.630Z,96220.75
2018-11-29T14:05:39.336Z,96220.25
2018-11-29T14:08:05.984Z,96220.10
2018-11-29T14:10:32.702Z,96219.09
2018-11-29T14:12:59.377Z,96211.70
2018-11-29T14:15:26.042Z,96216.91
2018-11-29T14:17:52.711Z,96212.64
2018-11-29T14:20:19.387Z,96221.75
2018-11-29T14:22:46.035Z,96205.37
2018-11-29T14:25:12.695Z,96219.04
2018-11-29T14:27:39.356Z,96223.44
2018-11-29T14:30:06.001Z,96220.72
2018-11-29T14:32:32.679Z,96219.13
2018-11-29T14:34:59.449Z,96221.77
2018-11-29T14:37:26.241Z,96223.29
2018-11-29T14:39:52.882Z,96231.73
2018-11-29T14:42:19.751Z,96231.58
2018-11-29T14:44:46.427Z,96231.62
2018-11-29T14:47:13.101Z,96231.19
2018-11-29T14:49:39.747Z,96232.81
2018-11-29T14:52:08.093Z,96237.83
2018-11-29T14:54:33.052Z,96246.02
2018-11-29T14:56:59.699Z,96241.30
2018-11-29T14:59:27.472Z,96245.75
2018-11-29T15:01:54.143Z,96249.38
2018-11-29T15:04:20.823Z,96247.39
2018-11-29T15:06:47.453Z,96249.63
2018-11-29T15:09:14.524Z,96243.84
2018-11-29T15:11:41.240Z,96248.23
2018-11-29T15:14:07.961Z,96243.92
2018-11-29T15:16:34.621Z,96242.87
2018-11-29T15:19:01.280Z,96241.48
2018-11-29T15:21:27.998Z,96243.13
2018-11-29T15:23:54.703Z,96244.45
2018-11-29T15:26:21.403Z,96246.06
2018-11-29T15:28:48.055Z,96246.68
2018-11-29T15:31:14.727Z,96246.06
2018-11-29T15:33:41.435Z,96239.44
2018-11-29T15:36:08.152Z,96240.45
2018-11-29T15:38:34.843Z,96243.13
2018-11-29T15:41:01.492Z,96241.38
2018-11-29T15:43:28.148Z,96242.73
2018-11-29T15:45:57.490Z,96249.23
2018-11-29T15:48:24.187Z,96250.02
2018-11-29T15:50:50.983Z,96254.78
2018-11-29T15:53:17.626Z,96256.41
2018-11-29T15:55:44.269Z,96256.80
2018-11-29T15:58:10.970Z,96262.83
2018-11-29T16:00:37.621Z,96256.89
2018-11-29T16:03:04.278Z,96262.20
2018-11-29T16:05:30.930Z,96271.86
2018-11-29T16:07:57.736Z,96275.27
2018-11-29T16:10:24.453Z,96272.48
2018-11-29T16:12:51.091Z,96271.55
2018-11-29T16:15:17.729Z,96275.70
2018-11-29T16:17:44.402Z,96279.69
2018-11-29T16:20:11.560Z,96268.34
2018-11-29T16:22:38.252Z,96277.98
2018-11-29T16:25:04.894Z,96275.80
2018-11-29T16:27:31.609Z,96272.58
2018-11-29T16:29:58.257Z,96274.49
2018-11-29T16:32:24.959Z,96272.96
2018-11-29T16:34:51.646Z,96278.27
2018-11-29T16:37:18.285Z,96277.47
2018-11-29T16:39:44.955Z,96250.54
2018-11-29T16:42:12.073Z,96271.19
2018-11-29T16:44:38.787Z,96271.39
2018-11-29T16:47:05.481Z,96271.47
2018-11-29T16:49:32.116Z,96280.67
2018-11-29T16:51:58.754Z,96262.75
2018-11-29T16:54:25.458Z,96276.63
2018-11-29T16:56:52.100Z,96276.33
2018-11-29T16:59:18.803Z,96274.33
2018-11-29T17:01:45.496Z,96273.33
2018-11-29T17:04:12.148Z,96270.16
2018-11-29T17:06:38.849Z,96273.94
2018-11-29T17:09:05.605Z,96267.28
2018-11-29T17:11:32.292Z,96267.78
2018-11-29T17:13:58.937Z,96271.41
2018-11-29T17:16:25.598Z,96266.75
2018-11-29T17:18:52.253Z,96277.50
2018-11-29T17:21:18.890Z,96276.72
2018-11-29T17:23:45.545Z,96280.57
2018-11-29T17:26:12.191Z,96280.81
2018-11-29T17:28:38.829Z,96275.34
2018-11-29T17:31:05.468Z,96275.53
2018-11-29T17:33:32.124Z,96271.70
2018-11-29T17:35:58.770Z,96279.67
2018-11-29T17:38:25.426Z,96274.64
2018-11-29T17:40:52.081Z,96269.93
2018-11-29T17:43:18.804Z,96273.19
2018-11-29T17:45:45.462Z,96272.56
2018-11-29T17:48:12.118Z,96266.69
2018-11-29T17:50:38.756Z,96264.53
2018-11-29T17:53:05.408Z,96266.94
2018-11-29T17:55:32.069Z,96269.05
2018-11-29T17:57:58.714Z,96264.91
2018-11-29T18:00:25.411Z,96263.92
2018-11-29T18:02:52.028Z,96258.92
2018-11-29T18:05:18.685Z,96266.28
2018-11-29T18:07:45.320Z,96267.75
2018-11-29T18:10:11.994Z,96262.86
2018-11-29T18:12:38.636Z,96264.36
2018-11-29T18:15:05.295Z,96260.96
2018-11-29T18:17:31.936Z,96259.41
2018-11-29T18:19:58.589Z,96256.31
2018-11-29T18:22:25.245Z,96260.04
2018-11-29T18:24:51.913Z,96254.30
2018-11-29T18:27:18.568Z,96256.40
2018-11-29T18:29:45.242Z,96258.80
2018-11-29T18:32:14.715Z,96257.70
2018-11-29T18:34:41.366Z,96251.84
2018-11-29T18:37:08.023Z,96252.02
2018-11-29T18:39:34.659Z,96254.87
2018-11-29T18:42:01.309Z,96253.42
2018-11-29T18:44:27.970Z,96256.97
2018-11-29T18:46:54.629Z,96252.52
2018-11-29T18:49:21.278Z,96252.72
2018-11-29T18:51:47.927Z,96254.17
2018-11-29T18:54:14.582Z,96255.94
2018-11-29T18:56:41.307Z,96253.87
2018-11-29T18:59:07.950Z,96255.72
2018-11-29T19:01:34.601Z,96251.70
2018-11-29T19:04:01.242Z,96246.44
2018-11-29T19:06:29.230Z,96242.36
2018-11-29T19:08:54.579Z,96248.00
2018-11-29T19:11:21.350Z,96249.34
2018-11-29T19:13:47.901Z,96246.55
2018-11-29T19:16:14.554Z,96242.91
2018-11-29T19:18:41.218Z,96247.08
2018-11-29T19:21:07.865Z,96252.49
2018-11-29T19:23:35.267Z,96245.56
2018-11-29T19:26:01.248Z,96244.78
2018-11-29T19:28:27.903Z,96252.64
2018-11-29T19:30:54.593Z,96247.32
2018-11-29T19:33:21.341Z,96240.76
2018-11-29T19:35:47.997Z,96250.09
2018-11-29T19:38:14.689Z,96250.20
2018-11-29T19:40:41.364Z,96248.47
2018-11-29T19:43:07.976Z,96258.59
2018-11-29T19:45:34.616Z,96251.36
2018-11-29T19:48:01.254Z,96258.69
2018-11-29T19:50:27.950Z,96263.14
2018-11-29T19:52:54.592Z,96262.68
2018-11-29T19:55:21.243Z,96262.45
2018-11-29T19:57:47.881Z,96261.31
2018-11-29T20:00:14.521Z,96248.53
2018-11-29T20:02:41.186Z,96259.42
2018-11-29T20:05:07.831Z,96255.75
2018-11-29T20:07:34.478Z,96256.34
2018-11-29T20:10:01.118Z,96252.04
2018-11-29T20:12:27.757Z,96258.37
2018-11-29T20:14:54.418Z,96257.91
2018-11-29T20:17:21.061Z,96259.75
2018-11-29T20:19:47.718Z,96257.06
2018-11-29T20:22:14.354Z,96255.04
2018-11-29T20:24:41.004Z,96259.00
2018-11-29T20:27:07.639Z,96255.82
2018-11-29T20:29:34.303Z,96263.94
2018-11-29T20:32:00.960Z,96261.40
2018-11-29T20:34:27.927Z,96251.82
2018-11-29T20:36:54.571Z,96252.70
2018-11-29T20:39:21.228Z,96251.59
2018-11-29T20:41:47.877Z,96248.05
2018-11-29T20:44:14.535Z,96244.42
2018-11-29T20:46:41.172Z,96245.80
2018-11-29T20:49:07.861Z,96239.72
2018-11-29T20:51:34.503Z,96240.51
2018-11-29T20:54:01.155Z,96241.48
2018-11-29T20:56:27.874Z,96242.91
2018-11-29T20:58:54.515Z,96239.36
2018-11-29T21:01:21.188Z,96236.47
2018-11-29T21:03:47.792Z,96237.79
2018-11-29T21:06:14.446Z,96233.50
2018-11-29T21:08:41.139Z,96240.88
2018-11-29T21:11:07.776Z,96237.48
2018-11-29T21:13:34.420Z,96228.64
2018-11-29T21:16:01.122Z,96230.91
2018-11-29T21:18:27.766Z,96227.31
2018-11-29T21:20:54.424Z,96223.24
2018-11-29T21:23:21.061Z,96220.48
2018-11-29T21:25:47.702Z,96222.02
2018-11-29T21:28:14.412Z,96214.58
2018-11-29T21:30:41.080Z,96216.47
2018-11-29T21:33:07.712Z,96213.70
2018-11-29T21:35:34.404Z,96214.25
2018-11-29T21:38:01.049Z,96217.31
2018-11-29T21:40:27.685Z,96216.42
2018-11-29T21:42:54.338Z,96209.88
2018-11-29T21:45:21.000Z,96206.61
2018-11-29T21:47:47.645Z,96205.60
2018-11-29T21:50:14.292Z,96207.00
2018-11-29T21:52:40.930Z,96204.53
2018-11-29T21:55:07.605Z,96199.52
2018-11-29T21:57:34.324Z,96198.67
2018-11-29T22:00:00.973Z,96189.48
2018-11-29T22:02:27.626Z,96190.20
2018-11-29T22:04:54.273Z,96190.09
2018-11-29T22:07:23.640Z,96193.88
2018-11-29T22:09:50.294Z,96185.42
2018-11-29T22:12:16.929Z,96187.55
2018-11-29T22:14:43.630Z,96187.86
2018-11-29T22:17:10.265Z,96179.72
2018-11-29T22:19:36.921Z,96178.23
2018-11-29T22:22:03.573Z,96177.89
2018-11-29T22:24:30.221Z,96173.66
2018-11-29T22:26:56.914Z,96167.00
2018-11-29T22:29:23.556Z,96166.63
2018-11-29T22:31:50.217Z,96166.72
2018-11-29T22:34:16.900Z,96151.81
2018-11-29T22:36:43.561Z,96160.30
2018-11-29T22:39:10.241Z,96151.59
2018-11-29T22:41:36.890Z,96153.08
2018-11-29T22:44:03.576Z,96142.89
2018-11-29T22:46:30.214Z,96145.30
2018-11-29T22:48:56.852Z,96147.45
2018-11-29T22:51:23.520Z,96142.42
2018-11-29T22:53:50.159Z,96138.48
2018-11-29T22:56:16.897Z,96140.02
2018-11-29T22:58:43.499Z,96142.52
2018-11-29T23:01:10.279Z,96146.34
2018-11-29T23:03:36.910Z,96137.50
2018-11-29T23:06:03.622Z,96132.39
2018-11-29T23:08:30.277Z,96130.78
2018-11-29T23:10:56.933Z,96128.30
2018-11-29T23:13:23.570Z,96126.76
2018-11-29T23:15:50.261Z,96129.30
2018-11-29T23:18:16.906Z,96120.97
2018-11-29T23:20:43.546Z,96121.06
2018-11-29T23:23:10.201Z,96123.97
2018-11-29T23:25:36.841Z,96118.41
2018-11-29T23:28:03.531Z,96119.11
2018-11-29T23:30:30.231Z,96118.09
2018-11-29T23:32:56.890Z,96117.02
2018-11-29T23:35:23.536Z,96113.70
2018-11-29T23:37:50.181Z,96112.30
2018-11-29T23:40:16.824Z,96112.94
2018-11-29T23:42:43.472Z,96113.23
2018-11-29T23:45:10.116Z,96105.91
2018-11-29T23:47:36.801Z,96109.08
2018-11-29T23:50:03.437Z,96104.52
2018-11-29T23:52:30.089Z,96100.27
2018-11-29T23:54:56.733Z,96102.02
2018-11-29T23:57:23.384Z,96099.52
2018-11-29T23:59:50.024Z,96097.39
